Time;durP1;ratioP1;P1;durP2;ratioP2;P2;SDS_P1;SDS_P2;PMS_P1;PMS_P2;Temp;Humidity;BMP_temperature;BMP_pressure;BME280_temperature;BME280_humidity;BME280_pressure;Samples;Min_cycle;Max_cycle;Signal;HPM_P1;HPM_P2
2022/11/22 00:01:09;;;;;;;4.70;2.63;;;;;;;3.32;100.00;99192.34;6212928;28;20384;-75
2022/11/22 00:04:14;;;;;;;11.23;3.25;;;;;;;3.37;100.00;99186.97;6194616;28;20056;-74
2022/11/22 00:07:14;;;;;;;4.95;2.47;;;;;;;3.25;100.00;99182.38;6194533;28;20396;-74
2022/11/22 00:10:15;;;;;;;6.10;3.53;;;;;;;3.24;100.00;99181.53;6194480;28;20050;-74
2022/11/22 00:13:18;;;;;;;18.63;3.25;;;;;;;3.30;100.00;99188.19;6193330;28;20046;-74
2022/11/22 00:16:18;;;;;;;4.68;2.33;;;;;;;3.22;100.00;99188.50;6194404;28;20039;-75
2022/11/22 00:19:19;;;;;;;4.00;2.22;;;;;;;3.23;100.00;99200.47;6193126;28;20525;-75
2022/11/22 00:22:20;;;;;;;7.32;2.80;;;;;;;3.00;100.00;99210.06;6193237;28;20477;-75
2022/11/22 00:25:20;;;;;;;5.03;3.00;;;;;;;3.05;100.00;99201.28;6193279;28;20438;-75
2022/11/22 00:28:21;;;;;;;4.07;2.13;;;;;;;3.03;100.00;99216.84;6193056;28;20074;-74
2022/11/22 00:31:22;;;;;;;6.93;2.78;;;;;;;3.01;100.00;99224.63;6194236;28;20053;-74
2022/11/22 00:34:22;;;;;;;9.05;2.42;;;;;;;3.11;100.00;99227.66;6196428;28;20125;-74
2022/11/22 00:37:23;;;;;;;2.75;2.33;;;;;;;3.07;100.00;99227.84;6198338;28;20125;-74
2022/11/22 00:40:24;;;;;;;5.25;3.10;;;;;;;3.10;100.00;99223.41;6197714;28;20038;-75
2022/11/22 00:43:25;;;;;;;3.85;1.45;;;;;;;3.00;100.00;99225.53;6197040;28;20137;-75
2022/11/22 00:46:25;;;;;;;6.75;2.40;;;;;;;2.95;100.00;99231.81;6180904;28;20490;-74
2022/11/22 00:49:28;;;;;;;4.65;2.50;;;;;;;2.96;100.00;99231.72;6197014;28;20046;-74
2022/11/22 00:52:29;;;;;;;4.43;2.53;;;;;;;3.02;100.00;99228.03;6198181;28;20083;-74
2022/11/22 00:55:30;;;;;;;2.72;2.10;;;;;;;3.01;100.00;99234.94;6198123;28;20046;-75
2022/11/22 00:58:31;;;;;;;2.55;2.05;;;;;;;3.03;100.00;99229.75;6197856;28;20061;-75
2022/11/22 01:01:31;;;;;;;11.20;2.80;;;;;;;3.10;100.00;99225.97;6196927;28;20049;-74
2022/11/22 01:04:32;;;;;;;4.53;2.63;;;;;;;3.18;100.00;99218.75;6196585;28;20050;-75
2022/11/22 01:07:33;;;;;;;3.85;2.63;;;;;;;3.17;100.00;99211.06;6196940;28;20046;-75
2022/11/22 01:10:35;;;;;;;3.17;1.83;;;;;;;3.16;100.00;99233.44;6197830;28;20466;-75
2022/11/22 01:13:36;;;;;;;4.18;2.40;;;;;;;3.18;100.00;99228.22;6196730;28;20117;-75
2022/11/22 01:16:36;;;;;;;21.83;3.30;;;;;;;3.19;100.00;99230.75;6196515;28;20049;-75
2022/11/22 01:19:37;;;;;;;4.68;2.28;;;;;;;3.14;100.00;99230.09;6211859;28;20090;-74
2022/11/22 01:22:40;;;;;;;3.60;2.58;;;;;;;3.25;100.00;99223.63;6221573;28;20425;-75
2022/11/22 01:25:43;;;;;;;2.25;1.98;;;;;;;3.21;100.00;99233.22;6197375;28;20492;-75
2022/11/22 01:28:43;;;;;;;;;;;;;;;3.25;100.00;99232.19;6198700;28;20542;-74
2022/11/22 01:31:44;;;;;;;1.90;1.42;;;;;;;3.19;100.00;99223.00;6299645;28;19928;-75
2022/11/22 01:34:45;;;;;;;4.03;2.42;;;;;;;3.19;100.00;99224.72;6220182;28;20045;-75
2022/11/22 01:37:48;;;;;;;3.05;1.88;;;;;;;3.27;100.00;99221.81;6221099;28;20050;-75
2022/11/22 01:40:48;;;;;;;3.38;1.95;;;;;;;3.35;100.00;99224.91;6222241;28;20394;-74
2022/11/22 01:43:49;;;;;;;5.93;2.53;;;;;;;3.45;100.00;99220.16;6221041;28;20042;-78
2022/11/22 01:46:54;;;;;;;5.18;2.78;;;;;;;3.47;100.00;99214.03;6222230;28;20082;-74
2022/11/22 01:50:05;;;;;;;5.20;3.22;;;;;;;3.52;100.00;99216.41;6214543;28;20121;-75
2022/11/22 01:53:13;;;;;;;5.05;2.90;;;;;;;3.62;100.00;99218.50;6180290;28;20055;-74
2022/11/22 01:56:20;;;;;;;4.72;2.40;;;;;;;3.68;100.00;99216.53;6195764;28;20095;-75
2022/11/22 01:59:25;;;;;;;5.65;3.08;;;;;;;3.67;100.00;99223.44;6195691;28;20073;-75
2022/11/22 02:02:26;;;;;;;4.93;3.22;;;;;;;3.69;100.00;99223.38;6196502;28;20126;-75
2022/11/22 02:05:31;;;;;;;8.23;3.58;;;;;;;3.71;100.00;99237.06;6196441;28;20479;-75
2022/11/22 02:08:54;;;;;;;3.75;2.67;;;;;;;3.75;100.00;99234.25;6197577;28;20130;-74
2022/11/22 02:12:00;;;;;;;3.20;2.20;;;;;;;3.69;100.00;99236.28;6197684;28;20046;-75
2022/11/22 02:15:01;;;;;;;7.20;4.22;;;;;;;3.67;100.00;99236.34;6298562;28;20047;-75
2022/11/22 02:18:03;;;;;;;8.18;4.05;;;;;;;3.67;100.00;99241.50;6192309;28;20421;-77
2022/11/22 02:21:05;;;;;;;7.00;3.05;;;;;;;3.69;100.00;99244.03;6220845;28;20053;-77
2022/11/22 02:24:23;;;;;;;6.00;3.58;;;;;;;3.76;100.00;99245.41;6306678;28;20410;-77
2022/11/22 02:27:24;;;;;;;9.68;3.50;;;;;;;3.69;100.00;99246.59;6204003;28;20413;-77
2022/11/22 02:30:25;;;;;;;15.00;5.03;;;;;;;3.72;100.00;99239.53;6220429;28;20094;-77
2022/11/22 02:33:25;;;;;;;5.20;3.55;;;;;;;3.73;100.00;99245.56;6220420;28;20397;-78
2022/11/22 02:36:26;;;;;;;5.55;2.92;;;;;;;3.75;100.00;99238.59;6221519;28;20045;-77
2022/11/22 02:39:30;;;;;;;14.55;5.07;;;;;;;3.73;100.00;99241.22;6221593;28;20060;-77
2022/11/22 02:42:32;;;;;;;24.60;5.32;;;;;;;3.61;100.00;99234.88;6323459;27;20058;-77
2022/11/22 02:45:33;;;;;;;9.20;4.15;;;;;;;3.79;100.00;99243.53;6220258;28;20042;-77
2022/11/22 02:48:39;;;;;;;5.60;3.70;;;;;;;3.66;100.00;99242.41;6221226;28;20045;-77
2022/11/22 02:51:40;;;;;;;9.90;3.65;;;;;;;3.60;100.00;99246.13;6220116;28;20041;-77
2022/11/22 02:54:41;;;;;;;6.00;4.03;;;;;;;3.57;100.00;99243.66;6220007;28;20492;-77
2022/11/22 02:57:41;;;;;;;4.30;2.85;;;;;;;3.50;100.00;99239.69;6219230;28;20050;-77
2022/11/22 03:00:42;;;;;;;7.15;3.33;;;;;;;3.58;100.00;99236.75;6220984;28;20098;-77
2022/11/22 03:03:43;;;;;;;3.95;2.63;;;;;;;3.60;100.00;99235.81;6286643;28;20078;-77
2022/11/22 03:06:44;;;;;;;6.35;3.88;;;;;;;3.67;100.00;99243.25;6196662;28;20047;-77
2022/11/22 03:09:47;;;;;;;11.07;3.17;;;;;;;3.69;100.00;99242.28;6200729;28;20084;-77
2022/11/22 03:12:47;;;;;;;15.00;3.55;;;;;;;3.81;100.00;99235.72;6219714;28;20061;-78
2022/11/22 03:15:48;;;;;;;5.07;3.08;;;;;;;3.63;100.00;99237.41;6220733;28;20451;-77
2022/11/22 03:18:49;;;;;;;7.97;3.55;;;;;;;3.70;100.00;99231.03;6220653;28;20053;-78
2022/11/22 03:21:49;;;;;;;7.43;4.57;;;;;;;3.80;100.00;99234.88;6220741;28;20103;-77
2022/11/22 03:24:50;;;;;;;4.45;3.13;;;;;;;3.86;100.00;99231.16;6220846;28;20050;-77
2022/11/22 03:27:51;;;;;;;7.45;2.83;;;;;;;3.89;100.00;99233.63;6210005;28;20501;-77
2022/11/22 03:30:52;;;;;;;12.85;3.55;;;;;;;3.80;100.00;99224.53;6208945;28;20417;-77
2022/11/22 03:33:53;;;;;;;9.55;4.82;;;;;;;3.84;100.00;99233.00;6279187;28;20047;-77
2022/11/22 03:36:53;;;;;;;4.10;2.55;;;;;;;3.88;100.00;99228.53;6203010;28;20053;-78
2022/11/22 03:39:54;;;;;;;6.18;3.60;;;;;;;3.82;100.00;99240.78;6218107;28;20046;-77
2022/11/22 03:43:01;;;;;;;4.75;3.33;;;;;;;3.72;100.00;99239.53;6218029;28;20042;-77
2022/11/22 03:46:02;;;;;;;11.15;4.40;;;;;;;3.71;100.00;99235.31;6296042;28;20047;-77
2022/11/22 03:49:03;;;;;;;3.60;2.95;;;;;;;3.68;100.00;99232.84;6193629;28;20049;-77
2022/11/22 03:52:05;;;;;;;3.60;2.63;;;;;;;3.51;100.00;99225.88;6193983;28;20050;-77
2022/11/22 03:55:06;;;;;;;5.18;3.08;;;;;;;3.54;100.00;99242.97;6177438;28;20082;-77
2022/11/22 03:58:06;;;;;;;3.97;2.42;;;;;;;3.60;100.00;99238.38;6193465;28;20108;-77
2022/11/22 04:01:07;;;;;;;6.65;3.55;;;;;;;3.49;100.00;99239.75;6201536;28;20117;-77
2022/11/22 04:04:09;;;;;;;3.45;2.67;;;;;;;3.62;100.00;99240.88;6217945;28;20171;-77
2022/11/22 04:07:10;;;;;;;7.07;3.28;;;;;;;3.65;100.00;99243.31;6218832;28;20046;-77
2022/11/22 04:10:11;;;;;;;7.25;3.47;;;;;;;3.70;100.00;99238.78;6217011;28;20394;-77
2022/11/22 04:13:14;;;;;;;8.88;3.95;;;;;;;3.77;100.00;99240.19;6217742;28;20042;-78
2022/11/22 04:16:15;;;;;;;12.85;3.97;;;;;;;3.68;100.00;99232.84;6218803;28;20050;-77
2022/11/22 04:19:15;;;;;;;5.60;3.60;;;;;;;3.92;100.00;99225.72;6218678;28;20046;-77
2022/11/22 04:22:16;;;;;;;6.53;3.88;;;;;;;3.85;100.00;99219.19;6218668;28;20120;-77
2022/11/22 04:25:17;;;;;;;5.28;3.40;;;;;;;3.91;100.00;99236.97;6217545;28;20042;-77
2022/11/22 04:28:20;;;;;;;4.82;3.17;;;;;;;3.83;100.00;99237.31;6309816;28;20046;-78
2022/11/22 04:34:40;;;;;;;4.38;3.30;;;;;;;3.80;100.00;99237.44;6194219;28;20100;-77
2022/11/22 04:37:41;;;;;;;6.38;3.40;;;;;;;3.87;100.00;99239.75;6194209;28;20042;-77
2022/11/22 04:40:42;;;;;;;7.17;3.30;;;;;;;3.86;100.00;99238.91;6192873;28;20057;-77
2022/11/22 04:47:02;;;;;;;6.05;3.42;;;;;;;3.76;100.00;99241.06;6194568;28;20047;-77
2022/11/22 04:53:26;;;;;;;6.15;2.53;;;;;;;3.79;100.00;99250.44;6193969;28;20479;-77
2022/11/22 04:56:27;;;;;;;3.42;2.50;;;;;;;3.59;100.00;99235.84;6198485;28;20053;-77
2022/11/22 04:59:38;;;;;;;2.40;1.92;;;;;;;3.54;100.00;99240.38;6197644;28;20103;-77
2022/11/22 05:02:38;;;;;;;3.80;2.10;;;;;;;3.42;100.00;99255.50;6202904;28;20050;-77
2022/11/22 05:05:42;;;;;;;8.13;2.00;;;;;;;3.44;100.00;99255.44;6214055;28;20034;-77
2022/11/22 05:08:42;;;;;;;15.88;2.97;;;;;;;3.45;100.00;99254.53;6192582;28;20057;-74
2022/11/22 05:11:43;;;;;;;2.83;2.08;;;;;;;3.39;100.00;99258.22;6213331;28;20042;-77
2022/11/22 05:14:44;;;;;;;2.00;1.65;;;;;;;3.44;100.00;99255.44;6217985;28;20042;-77
2022/11/22 05:17:49;;;;;;;4.63;1.83;;;;;;;3.35;100.00;99256.66;6197498;28;20487;-77
2022/11/22 05:20:51;;;;;;;5.72;2.20;;;;;;;3.31;100.00;99264.63;6196322;28;20125;-77
2022/11/22 05:23:54;;;;;;;4.32;2.65;;;;;;;3.27;100.00;99269.06;6197729;28;20104;-77
2022/11/22 05:26:55;;;;;;;3.05;1.90;;;;;;;3.15;100.00;99248.97;6197529;28;20062;-77
2022/11/22 05:29:58;;;;;;;2.22;1.58;;;;;;;3.13;100.00;99261.94;6196471;28;20047;-78
2022/11/22 05:32:59;;;;;;;5.00;2.55;;;;;;;3.09;100.00;99260.41;6197613;28;20046;-77
2022/11/22 05:36:00;;;;;;;4.32;2.00;;;;;;;3.09;100.00;99252.66;6196469;28;20494;-77
2022/11/22 05:39:02;;;;;;;2.47;1.80;;;;;;;3.02;100.00;99256.41;6214895;28;20038;-76
2022/11/22 05:42:04;;;;;;;1.08;1.02;;;;;;;2.94;100.00;99269.59;6203947;28;20056;-77
2022/11/22 05:45:06;;;;;;;3.80;2.33;;;;;;;3.08;100.00;99260.47;6220532;28;20409;-77
2022/11/22 05:48:07;;;;;;;2.25;1.65;;;;;;;3.11;100.00;99260.31;6220226;28;20050;-78
2022/11/22 05:51:10;;;;;;;4.05;2.55;;;;;;;3.26;100.00;99254.50;6220222;28;20159;-78
2022/11/22 05:54:11;;;;;;;3.55;2.20;;;;;;;3.30;100.00;99252.63;6220237;28;20044;-78
2022/11/22 05:57:11;;;;;;;4.38;2.72;;;;;;;3.48;100.00;99248.38;6209520;28;20043;-78
2022/11/22 06:00:13;;;;;;;3.97;2.20;;;;;;;3.56;100.00;99252.31;6195760;28;20550;-78
2022/11/22 06:03:13;;;;;;;12.60;3.08;;;;;;;3.50;100.00;99249.16;6195881;28;20039;-78
2022/11/22 06:06:15;;;;;;;8.18;3.63;;;;;;;3.53;100.00;99259.34;6195773;28;20053;-78
2022/11/22 06:09:15;;;;;;;4.90;3.33;;;;;;;3.55;100.00;99250.63;6212758;28;20050;-78
2022/11/22 06:12:16;;;;;;;6.10;3.60;;;;;;;3.70;100.00;99254.25;6220063;28;20042;-78
2022/11/22 06:15:17;;;;;;;6.85;3.60;;;;;;;3.83;100.00;99255.38;6219782;28;20038;-78
2022/11/22 06:18:17;;;;;;;6.90;3.55;;;;;;;3.87;100.00;99261.25;6204541;28;20038;-79
2022/11/22 06:21:23;;;;;;;7.93;3.97;;;;;;;3.97;100.00;99267.63;6203520;28;20042;-79
2022/11/22 06:24:24;;;;;;;7.78;3.95;;;;;;;4.08;100.00;99269.75;6195391;28;20119;-78
2022/11/22 06:27:25;;;;;;;14.43;3.92;;;;;;;3.98;100.00;99271.06;6193824;28;20550;-79
2022/11/22 06:30:30;;;;;;;9.77;5.13;;;;;;;3.99;100.00;99277.91;6193657;28;20051;-78
2022/11/22 06:33:30;;;;;;;7.70;3.35;;;;;;;4.03;100.00;99267.34;6193841;28;20043;-78
2022/11/22 06:36:33;;;;;;;6.53;4.07;;;;;;;4.06;100.00;99266.38;6194508;28;20462;-78
2022/11/22 06:39:34;;;;;;;12.30;5.40;;;;;;;4.10;100.00;99264.47;6194724;28;20111;-78
2022/11/22 06:42:35;;;;;;;14.70;7.15;;;;;;;4.23;100.00;99269.00;6196175;28;20459;-79
2022/11/22 06:45:38;;;;;;;14.15;6.40;;;;;;;4.27;100.00;99271.44;6194643;28;20107;-78
2022/11/22 06:48:40;;;;;;;14.05;7.57;;;;;;;4.37;100.00;99268.34;6196035;28;20073;-78
2022/11/22 06:51:41;;;;;;;18.98;7.93;;;;;;;4.35;100.00;99262.41;6194567;28;20488;-78
2022/11/22 06:54:42;;;;;;;17.08;8.23;;;;;;;4.50;100.00;99275.50;6195689;28;20039;-78
2022/11/22 06:57:43;;;;;;;15.15;8.35;;;;;;;4.58;100.00;99279.38;6279521;28;20062;-78
2022/11/22 07:00:43;;;;;;;11.20;6.63;;;;;;;4.50;100.00;99278.91;6194238;28;20061;-78
2022/11/22 07:03:45;;;;;;;10.65;5.05;;;;;;;4.62;100.00;99287.84;6178061;28;20111;-78
2022/11/22 07:06:46;;;;;;;9.40;4.77;;;;;;;4.42;100.00;99292.19;6195461;28;20050;-78
2022/11/22 07:09:47;;;;;;;8.55;5.22;;;;;;;4.33;100.00;99291.81;6195580;28;20376;-78
2022/11/22 07:12:50;;;;;;;10.32;5.05;;;;;;;4.49;100.00;99285.00;6193985;28;20061;-78
2022/11/22 07:15:58;;;;;;;8.65;4.97;;;;;;;4.52;100.00;99281.44;6195355;28;20038;-78
2022/11/22 07:18:59;;;;;;;8.27;4.53;;;;;;;4.61;100.00;99278.41;6194063;28;20046;-79
2022/11/22 07:22:00;;;;;;;8.70;6.20;;;;;;;4.60;100.00;99281.91;6194027;28;20053;-79
2022/11/22 07:25:01;;;;;;;9.73;5.75;;;;;;;4.77;100.00;99292.25;6295811;28;20042;-78
2022/11/22 07:28:01;;;;;;;14.52;6.65;;;;;;;4.87;100.00;99284.88;6194015;28;20046;-79
2022/11/22 07:31:04;;;;;;;11.52;5.65;;;;;;;4.96;100.00;99297.34;6193924;28;20121;-78
2022/11/22 07:34:09;;;;;;;11.65;6.07;;;;;;;5.03;100.00;99290.13;6193750;28;20062;-79
2022/11/22 07:37:10;;;;;;;10.02;4.75;;;;;;;5.13;100.00;99290.50;6193771;28;20108;-79
2022/11/22 07:40:11;;;;;;;14.15;6.40;;;;;;;5.30;100.00;99294.81;6193649;28;20475;-79
2022/11/22 07:43:12;;;;;;;10.15;5.68;;;;;;;5.34;100.00;99283.38;6278511;28;20054;-79
2022/11/22 07:46:30;;;;;;;11.88;5.75;;;;;;;5.47;100.00;99283.56;6194791;28;20038;-79
2022/11/22 07:49:30;;;;;;;17.80;7.88;;;;;;;5.49;100.00;99261.88;6193706;28;20046;-79
2022/11/22 07:52:31;;;;;;;21.92;9.52;;;;;;;5.77;100.00;99260.44;6206638;28;20496;-79
2022/11/22 07:55:35;;;;;;;9.25;6.25;;;;;;;5.75;100.00;99260.50;6217886;28;20050;-79
2022/11/22 07:58:36;;;;;;;22.98;7.75;;;;;;;5.77;100.00;99279.38;6217750;28;20046;-79
2022/11/22 08:01:37;;;;;;;12.68;5.32;;;;;;;5.61;100.00;99269.00;6218820;28;20046;-78
2022/11/22 08:04:38;;;;;;;18.13;5.20;;;;;;;5.58;100.00;99266.59;6203862;28;20042;-78
2022/11/22 08:07:38;;;;;;;12.93;6.38;;;;;;;5.57;100.00;99264.06;6216323;28;20501;-79
2022/11/22 08:10:39;;;;;;;18.63;8.70;;;;;;;5.69;100.00;99260.81;6193367;28;20125;-79
2022/11/22 08:13:40;;;;;;;14.43;7.28;;;;;;;6.00;100.00;99254.03;6209247;28;20125;-78
2022/11/22 08:16:41;;;;;;;25.67;11.40;;;;;;;6.19;100.00;99265.03;6218352;28;20053;-79
2022/11/22 08:19:42;;;;;;;10.60;6.00;;;;;;;6.38;100.00;99275.22;6201503;28;20056;-79
2022/11/22 08:22:42;;;;;;;11.27;7.15;;;;;;;6.26;100.00;99270.72;6217419;28;20042;-75
2022/11/22 08:25:45;;;;;;;9.48;5.28;;;;;;;6.47;100.00;99260.06;6217312;28;20098;-75
2022/11/22 08:28:46;;;;;;;11.00;6.40;;;;;;;6.49;100.00;99264.25;6210239;28;20034;-75
2022/11/22 08:31:47;;;;;;;11.43;6.22;;;;;;;6.77;100.00;99263.47;6203910;28;20038;-75
2022/11/22 08:34:48;;;;;;;10.88;5.80;;;;;;;6.86;100.00;99264.72;6215393;28;20057;-75
2022/11/22 08:37:48;;;;;;;14.98;7.28;;;;;;;7.01;100.00;99262.97;6204950;28;20482;-75
2022/11/22 08:40:54;;;;;;;10.65;6.03;;;;;;;6.95;100.00;99252.97;6177843;28;20117;-75
2022/11/22 08:43:57;;;;;;;10.27;5.88;;;;;;;7.19;100.00;99254.13;6207179;28;20046;-75
2022/11/22 08:46:58;;;;;;;16.70;6.30;;;;;;;7.11;100.00;99247.72;6201109;28;20042;-75
2022/11/22 08:49:58;;;;;;;12.38;6.53;;;;;;;7.23;100.00;99249.59;6207435;28;20053;-78
2022/11/22 08:53:00;;;;;;;14.70;6.70;;;;;;;7.54;100.00;99245.13;6207540;28;20111;-75
2022/11/22 08:56:02;;;;;;;10.20;6.30;;;;;;;7.55;100.00;99229.44;6220954;28;20147;-76
2022/11/22 08:59:03;;;;;;;12.65;5.88;;;;;;;7.44;100.00;99230.09;6221114;28;20050;-75
2022/11/22 09:02:04;;;;;;;13.50;6.40;;;;;;;7.46;100.00;99227.41;6222232;28;20060;-75
2022/11/22 09:05:05;;;;;;;6.93;4.45;;;;;;;7.61;100.00;99223.03;6222063;28;20038;-75
2022/11/22 09:08:06;;;;;;;9.23;4.78;;;;;;;7.52;100.00;99224.44;6221012;28;20050;-75
2022/11/22 09:11:12;;;;;;;10.38;4.95;;;;;;;7.24;100.00;99213.13;6220859;28;20042;-75
2022/11/22 09:14:13;;;;;;;7.25;4.10;;;;;;;7.22;100.00;99206.38;6220728;28;20128;-75
2022/11/22 09:17:14;;;;;;;9.40;4.85;;;;;;;6.95;100.00;99201.94;6204376;28;20541;-75
2022/11/22 09:20:16;;;;;;;9.95;4.95;;;;;;;7.24;100.00;99201.94;6221848;28;20401;-75
2022/11/22 09:23:17;;;;;;;12.50;5.38;;;;;;;7.48;100.00;99207.41;6220667;28;20129;-78
2022/11/22 09:26:20;;;;;;;5.82;3.70;;;;;;;7.62;100.00;99216.94;6220607;28;20038;-75
2022/11/22 09:29:21;;;;;;;15.20;5.10;;;;;;;7.79;99.05;99213.28;6306955;28;20046;-75
2022/11/22 09:32:22;;;;;;;9.77;4.82;;;;;;;7.78;100.00;99214.19;6220362;28;20129;-75
2022/11/22 09:35:23;;;;;;;10.02;5.05;;;;;;;8.06;97.74;99218.47;6203930;28;20091;-75
2022/11/22 09:38:23;;;;;;;8.65;4.00;;;;;;;8.18;96.44;99220.28;6221522;28;20558;-79
2022/11/22 09:41:39;;;;;;;6.97;3.85;;;;;;;8.34;94.75;99216.69;6221416;28;20050;-79
2022/11/22 09:45:07;;;;;;;10.57;4.90;;;;;;;8.27;94.91;99211.88;6221333;28;20058;-74
2022/11/22 09:48:17;;;;;;;18.15;4.68;;;;;;;8.40;92.78;99201.53;6220234;28;20743;-79
2022/11/22 09:51:22;;;;;;;14.00;4.97;;;;;;;8.51;93.51;99207.84;6220027;28;20038;-75
2022/11/22 09:54:38;;;;;;;8.98;4.13;;;;;;;8.80;92.31;99196.31;6220054;28;20041;-75
2022/11/22 09:57:44;;;;;;;5.10;3.53;;;;;;;8.45;92.68;99193.47;6219678;28;20128;-75
2022/11/22 10:00:45;;;;;;;8.00;3.92;;;;;;;8.35;87.34;99187.19;6219967;28;20057;-74
2022/11/22 10:03:53;;;;;;;10.37;4.77;;;;;;;8.43;89.35;99180.56;6219775;28;20117;-75
2022/11/22 10:07:15;;;;;;;6.38;3.38;;;;;;;8.56;89.53;99177.97;6218651;28;20042;-74
2022/11/22 10:10:28;;;;;;;5.22;3.50;;;;;;;8.55;87.46;99162.50;6220988;28;20046;-75
2022/11/22 10:13:49;;;;;;;6.28;3.67;;;;;;;8.76;90.92;99161.03;6219627;28;20042;-75
2022/11/22 10:17:14;;;;;;;9.73;4.30;;;;;;;8.90;85.76;99164.50;6220818;28;20042;-79
2022/11/22 10:20:16;;;;;;;5.80;3.35;;;;;;;8.84;82.91;99168.34;6219300;28;20525;-79
2022/11/22 10:23:24;;;;;;;8.73;3.75;;;;;;;8.83;86.17;99156.25;6219462;28;20425;-78
2022/11/22 10:26:28;;;;;;;8.38;4.25;;;;;;;8.98;84.12;99152.63;6220688;28;20053;-78
2022/11/22 10:29:36;;;;;;;9.95;4.72;;;;;;;8.94;85.69;99150.34;6220669;28;20056;-79
2022/11/22 10:33:03;;;;;;;6.47;3.83;;;;;;;9.13;83.79;99145.50;6203053;28;20110;-79
2022/11/22 10:36:31;;;;;;;5.43;3.28;;;;;;;9.34;85.58;99144.97;6220415;28;20042;-79
2022/11/22 10:39:56;;;;;;;8.60;4.15;;;;;;;9.38;80.76;99139.41;6220201;28;20470;-79
2022/11/22 10:44:11;;;;;;;5.82;2.97;;;;;;;9.17;81.54;99138.34;6219033;28;20520;-78
2022/11/22 10:47:33;;;;;;;6.93;3.45;;;;;;;9.14;84.26;99128.13;6222873;28;20078;-78
2022/11/22 10:51:07;;;;;;;7.05;4.00;;;;;;;9.43;82.29;99131.28;6275135;28;20489;-79
2022/11/22 10:54:19;;;;;;;8.18;3.38;;;;;;;9.35;79.36;99121.44;6218886;28;20091;-79
2022/11/22 10:57:50;;;;;;;6.95;3.75;;;;;;;9.33;80.98;99114.66;6219949;28;20091;-75
2022/11/22 11:01:08;;;;;;;4.88;3.38;;;;;;;9.56;79.80;99123.44;6220039;28;20041;-75
2022/11/22 11:04:12;;;;;;;8.20;3.72;;;;;;;9.62;78.76;99117.81;6218565;28;20521;-75
2022/11/22 11:07:20;;;;;;;9.70;4.20;;;;;;;9.55;77.93;99112.19;6219865;28;20069;-75
2022/11/22 11:10:28;;;;;;;6.38;3.92;;;;;;;9.62;78.34;99108.19;6218589;28;20038;-75
2022/11/22 11:13:38;;;;;;;7.72;3.35;;;;;;;10.12;77.04;99115.88;6219756;28;20539;-75
2022/11/22 11:16:41;;;;;;;5.22;3.17;;;;;;;9.56;75.56;99120.84;6218293;28;20052;-78
2022/11/22 11:19:46;;;;;;;7.28;3.65;;;;;;;9.77;75.94;99106.25;6219320;28;20053;-78
2022/11/22 11:22:49;;;;;;;7.25;4.00;;;;;;;9.67;76.65;99095.66;6219443;28;20046;-79
2022/11/22 11:26:20;;;;;;;7.72;4.20;;;;;;;9.87;77.76;99096.00;6203516;28;20471;-79
2022/11/22 11:29:32;;;;;;;6.18;2.92;;;;;;;9.65;75.34;99091.53;6201885;28;20133;-79
2022/11/22 11:32:49;;;;;;;;;;;;;;;9.54;76.04;99097.50;6202254;28;20515;-78
2022/11/22 11:35:54;;;;;;;8.02;3.53;;;;;;;9.73;77.45;99083.97;6218072;28;19947;-79
2022/11/22 11:38:57;;;;;;;6.18;3.70;;;;;;;9.81;79.01;99086.03;6219276;28;20042;-79
2022/11/22 11:41:58;;;;;;;6.68;3.03;;;;;;;9.88;74.31;99075.06;6218024;28;20041;-79
2022/11/22 11:45:27;;;;;;;7.00;3.53;;;;;;;10.09;75.36;99079.63;6219157;28;20052;-79
2022/11/22 11:48:42;;;;;;;5.15;3.10;;;;;;;9.96;74.21;99069.25;6219159;28;20421;-79
2022/11/22 11:51:48;;;;;;;6.53;3.63;;;;;;;9.94;74.51;99065.94;6217921;28;20057;-79
2022/11/22 11:54:54;;;;;;;7.38;3.67;;;;;;;9.93;75.29;99063.47;6217621;28;20046;-75
2022/11/22 11:57:54;;;;;;;8.90;3.85;;;;;;;9.94;73.92;99058.13;6218655;28;20133;-78
2022/11/22 12:00:56;;;;;;;6.15;3.22;;;;;;;10.00;77.64;99052.44;6217745;28;20052;-79
2022/11/22 12:04:01;;;;;;;6.00;2.90;;;;;;;9.73;73.65;99038.88;6217628;28;20513;-79
2022/11/22 12:07:21;;;;;;;3.45;2.45;;;;;;;9.56;74.37;99038.31;6217754;28;20174;-79
2022/11/22 12:10:44;;;;;;;4.45;2.30;;;;;;;9.42;74.49;99035.91;6217565;28;20050;-79
2022/11/22 12:13:52;;;;;;;3.40;1.90;;;;;;;9.17;73.01;99011.63;6218701;28;20045;-79
2022/11/22 12:16:58;;;;;;;6.63;2.40;;;;;;;9.12;74.68;99012.91;6218544;28;20103;-79
2022/11/22 12:20:08;;;;;;;5.35;2.42;;;;;;;9.12;73.67;99018.09;6218582;28;20413;-79
2022/11/22 12:23:36;;;;;;;4.45;2.42;;;;;;;9.10;73.97;99013.03;6200968;28;20053;-79
2022/11/22 12:26:37;;;;;;;2.60;1.88;;;;;;;8.85;75.94;99022.56;6200910;28;20046;-78
2022/11/22 12:29:43;;;;;;;3.63;2.08;;;;;;;8.72;75.12;99018.31;6218397;28;20049;-79
2022/11/22 12:33:00;;;;;;;3.00;1.75;;;;;;;8.55;75.35;99011.69;6222825;28;20046;-79
2022/11/22 12:36:07;;;;;;;4.07;2.35;;;;;;;8.64;76.10;99003.25;6221440;28;20038;-75
2022/11/22 12:39:14;;;;;;;3.88;2.03;;;;;;;8.70;76.17;99000.22;6221393;28;20057;-75
2022/11/22 12:42:56;;;;;;;3.53;2.03;;;;;;;8.57;76.17;98982.03;6204929;28;20061;-74
2022/11/22 12:46:11;;;;;;;2.72;1.88;;;;;;;8.74;78.16;98985.25;6222001;28;20054;-75
2022/11/22 12:49:23;;;;;;;3.15;2.17;;;;;;;8.72;78.19;98981.91;6222408;28;20054;-74
2022/11/22 12:52:38;;;;;;;1.70;1.52;;;;;;;8.65;75.45;98971.94;6221166;28;20064;-74
2022/11/22 12:55:48;;;;;;;4.43;1.98;;;;;;;8.59;77.66;98963.75;6221131;28;20406;-74
2022/11/22 12:59:04;;;;;;;10.02;3.03;;;;;;;8.54;76.12;98968.44;6220811;28;20246;-75
2022/11/22 13:02:31;;;;;;;10.20;4.15;;;;;;;8.56;77.28;98964.78;6221161;28;20049;-74
2022/11/22 13:05:54;;;;;;;5.88;3.60;;;;;;;8.69;77.99;98954.38;6222109;28;20098;-75
2022/11/22 13:09:01;;;;;;;3.58;2.55;;;;;;;8.57;75.52;98950.84;6222096;28;20052;-75
2022/11/22 13:12:05;;;;;;;3.72;1.98;;;;;;;8.42;75.92;98949.31;6220816;28;20049;-74
2022/11/22 13:15:11;;;;;;;2.25;1.55;;;;;;;8.45;76.90;98947.31;6220865;28;20151;-74
2022/11/22 13:18:15;;;;;;;2.95;1.80;;;;;;;8.50;77.20;98943.56;6324047;27;20049;-75
2022/11/22 13:21:38;;;;;;;2.78;1.50;;;;;;;8.52;77.29;98946.91;6220634;28;20057;-74
2022/11/22 13:24:41;;;;;;;2.60;1.65;;;;;;;8.61;77.54;98933.28;6204424;28;20125;-75
2022/11/22 13:27:47;;;;;;;2.50;1.50;;;;;;;8.53;77.08;98927.78;6220628;28;20042;-74
2022/11/22 13:31:09;;;;;;;2.95;1.73;;;;;;;8.52;77.61;98924.31;6204103;28;20483;-75
2022/11/22 13:34:24;;;;;;;3.20;1.52;;;;;;;8.59;76.19;98920.38;6204092;28;20057;-75
2022/11/22 13:37:28;;;;;;;1.52;1.23;;;;;;;8.61;75.13;98917.66;6220269;28;20070;-74
2022/11/22 13:40:33;;;;;;;2.55;1.58;;;;;;;8.80;76.46;98915.41;6219925;28;20064;-74
2022/11/22 13:43:51;;;;;;;1.20;1.05;;;;;;;8.52;74.06;98910.50;6220316;28;20038;-74
2022/11/22 13:46:57;;;;;;;4.97;1.67;;;;;;;8.56;75.81;98893.75;6220218;28;20034;-75
2022/11/22 13:49:58;;;;;;;6.10;2.83;;;;;;;8.63;76.98;98902.78;6220178;28;20053;-75
2022/11/22 13:53:17;;;;;;;3.60;1.73;;;;;;;8.53;75.45;98892.19;6220073;28;20074;-79
2022/11/22 13:56:23;;;;;;;1.88;1.50;;;;;;;8.47;77.44;98903.03;6219865;28;20050;-78
2022/11/22 13:59:24;;;;;;;1.85;1.40;;;;;;;8.31;77.47;98910.22;6220917;28;20111;-79
2022/11/22 14:02:26;;;;;;;2.92;1.40;;;;;;;8.28;78.55;98903.47;6221240;28;20038;-78
2022/11/22 14:05:36;;;;;;;11.18;4.32;;;;;;;8.16;80.20;98899.13;6219816;28;20134;-78
2022/11/22 14:08:40;;;;;;;3.40;1.88;;;;;;;8.06;80.57;98899.75;6219859;28;20455;-78
2022/11/22 14:11:56;;;;;;;2.25;1.30;;;;;;;8.00;80.16;98891.56;6219922;28;20065;-79
2022/11/22 14:15:26;;;;;;;1.88;1.30;;;;;;;7.89;81.90;98881.91;6220942;28;20045;-78
2022/11/22 14:18:50;;;;;;;3.40;1.52;;;;;;;7.79;82.48;98886.06;6219448;28;20444;-79
2022/11/22 14:21:57;;;;;;;2.47;1.48;;;;;;;7.77;82.03;98890.53;6219507;28;20440;-78
2022/11/22 14:25:19;;;;;;;2.20;1.58;;;;;;;7.62;81.29;98882.84;6219516;28;20490;-78
2022/11/22 14:28:26;;;;;;;2.92;1.90;;;;;;;7.62;83.38;98882.03;6219499;28;20058;-79
2022/11/22 14:31:33;;;;;;;4.00;1.83;;;;;;;7.50;84.21;98875.88;6220662;28;20405;-78
2022/11/22 14:34:34;;;;;;;3.60;1.30;;;;;;;7.43;84.82;98869.44;6220447;28;20045;-75
2022/11/22 14:37:55;;;;;;;6.15;2.63;;;;;;;7.36;84.79;98858.63;6220432;28;20038;-74
2022/11/22 14:41:27;;;;;;;3.53;2.33;;;;;;;7.40;84.90;98861.84;6219198;28;20042;-75
2022/11/22 14:44:33;;;;;;;3.80;1.60;;;;;;;7.26;86.18;98857.59;6219273;28;20501;-75